createdAt,value
2022-10-31T00:01:33.034Z,8.10
2022-10-31T00:04:00.531Z,8.30
2022-10-31T00:06:27.722Z,9.00
2022-10-31T00:09:05.969Z,15.75
2022-10-31T00:11:34.360Z,8.98
2022-10-31T00:14:01.374Z,7.55
2022-10-31T00:16:30.310Z,7.07
2022-10-31T00:19:01.604Z,10.60
2022-10-31T00:21:33.881Z,8.75
2022-10-31T00:24:02.674Z,7.80
2022-10-31T00:26:31.067Z,10.63
2022-10-31T00:29:00.022Z,5.75
2022-10-31T00:31:28.255Z,7.07
2022-10-31T00:33:55.811Z,7.57
2022-10-31T00:36:22.748Z,6.32
2022-10-31T00:38:50.440Z,10.07
2022-10-31T00:41:18.927Z,7.07
2022-10-31T00:43:45.993Z,10.75
2022-10-31T00:46:14.137Z,8.77
2022-10-31T00:48:42.017Z,9.48
2022-10-31T00:51:09.716Z,8.13
2022-10-31T00:53:36.837Z,9.32
2022-10-31T00:56:04.536Z,6.22
2022-10-31T00:58:31.554Z,8.52
2022-10-31T01:00:58.801Z,11.88
2022-10-31T01:03:32.445Z,6.88
2022-10-31T01:06:08.118Z,8.00
2022-10-31T01:08:36.292Z,9.45
2022-10-31T01:11:17.993Z,7.00
2022-10-31T01:13:46.334Z,10.40
2022-10-31T01:16:16.648Z,8.23
2022-10-31T01:18:44.267Z,7.95
2022-10-31T01:21:14.172Z,7.47
2022-10-31T01:23:41.248Z,6.28
2022-10-31T01:26:29.185Z,8.38
2022-10-31T01:29:07.245Z,6.80
2022-10-31T01:31:38.600Z,6.55
2022-10-31T01:34:07.582Z,8.35
2022-10-31T01:36:38.356Z,7.03
2022-10-31T01:39:08.575Z,6.63
2022-10-31T01:41:38.591Z,9.65
2022-10-31T01:44:17.747Z,7.80
2022-10-31T01:46:47.832Z,7.50
2022-10-31T01:49:22.663Z,8.93
2022-10-31T01:51:56.047Z,7.65
2022-10-31T01:54:28.448Z,10.45
2022-10-31T01:56:58.370Z,6.38
2022-10-31T01:59:30.446Z,10.38
2022-10-31T02:01:58.183Z,6.35
2022-10-31T02:04:28.029Z,6.85
2022-10-31T02:07:10.450Z,12.85
2022-10-31T02:09:38.591Z,8.20
2022-10-31T02:12:06.781Z,6.00
2022-10-31T02:14:36.510Z,7.07
2022-10-31T02:17:05.667Z,5.50
2022-10-31T02:19:39.609Z,7.25
2022-10-31T02:22:16.356Z,6.90
2022-10-31T02:25:01.074Z,8.18
2022-10-31T02:27:57.216Z,6.72
2022-10-31T02:30:30.168Z,8.52
2022-10-31T02:33:16.426Z,9.60
2022-10-31T02:35:58.777Z,6.90
2022-10-31T02:38:57.463Z,5.82
2022-10-31T02:42:05.700Z,6.60
2022-10-31T02:44:39.704Z,5.68
2022-10-31T02:47:17.141Z,8.82
2022-10-31T02:49:58.887Z,9.93
2022-10-31T02:52:29.316Z,5.90
2022-10-31T02:55:23.974Z,8.05
2022-10-31T02:57:57.925Z,7.15
2022-10-31T03:00:27.500Z,8.02
2022-10-31T03:03:23.195Z,6.82
2022-10-31T03:06:05.092Z,6.20
2022-10-31T03:08:43.028Z,7.15
2022-10-31T03:11:11.295Z,8.77
2022-10-31T03:14:03.573Z,10.65
2022-10-31T03:16:41.422Z,7.93
2022-10-31T03:19:12.130Z,7.55
2022-10-31T03:21:45.024Z,8.63
2022-10-31T03:24:14.373Z,8.68
2022-10-31T03:26:52.485Z,8.50
2022-10-31T03:29:22.946Z,8.65
2022-10-31T03:32:00.126Z,6.07
2022-10-31T03:34:29.282Z,9.73
2022-10-31T03:37:00.959Z,7.45
2022-10-31T03:39:29.769Z,5.82
2022-10-31T03:42:25.530Z,5.93
2022-10-31T03:45:04.817Z,8.25
2022-10-31T03:47:32.173Z,8.50
2022-10-31T03:50:03.487Z,4.68
2022-10-31T03:52:36.675Z,6.88
2022-10-31T03:55:08.974Z,9.63
2022-10-31T03:58:05.233Z,14.40
2022-10-31T04:00:34.700Z,11.15
2022-10-31T04:03:11.000Z,10.30
2022-10-31T04:05:40.249Z,8.23
2022-10-31T04:08:13.875Z,8.05
2022-10-31T04:10:44.092Z,15.02
2022-10-31T04:13:16.588Z,7.32
2022-10-31T04:15:47.512Z,11.50
2022-10-31T04:18:15.830Z,10.00
2022-10-31T04:20:43.196Z,5.78
2022-10-31T04:23:23.588Z,7.28
2022-10-31T04:25:51.384Z,8.75
2022-10-31T04:30:52.231Z,7.90
2022-10-31T04:33:19.864Z,6.75
2022-10-31T04:35:48.273Z,10.13
2022-10-31T04:38:15.326Z,12.13
2022-10-31T04:40:43.891Z,5.68
2022-10-31T04:43:29.287Z,5.80
2022-10-31T04:45:56.369Z,7.10
2022-10-31T04:48:23.475Z,9.25
2022-10-31T04:50:50.868Z,8.30
2022-10-31T04:53:17.760Z,6.72
2022-10-31T04:56:04.982Z,4.75
2022-10-31T04:58:46.031Z,6.00
2022-10-31T05:01:13.662Z,6.60
2022-10-31T05:03:41.147Z,9.45
2022-10-31T05:06:08.920Z,7.45
2022-10-31T05:08:38.008Z,9.60
2022-10-31T05:11:07.670Z,6.68
2022-10-31T05:13:34.732Z,6.32
2022-10-31T05:16:01.855Z,5.53
2022-10-31T05:18:48.429Z,9.35
2022-10-31T05:21:48.395Z,6.93
2022-10-31T05:24:16.556Z,11.50
2022-10-31T05:26:47.789Z,8.32
2022-10-31T05:29:14.714Z,7.80
2022-10-31T05:31:42.088Z,9.52
2022-10-31T05:34:22.130Z,9.73
2022-10-31T05:37:07.002Z,10.00
2022-10-31T05:39:35.974Z,13.15
2022-10-31T05:42:09.036Z,7.18
2022-10-31T05:44:35.974Z,9.52
2022-10-31T05:47:40.736Z,10.18
2022-10-31T05:50:28.053Z,12.65
2022-10-31T05:53:15.701Z,5.93
2022-10-31T05:55:44.500Z,5.40
2022-10-31T05:58:14.831Z,4.88
2022-10-31T06:00:49.771Z,5.07
2022-10-31T06:03:20.580Z,4.18
2022-10-31T06:05:55.389Z,5.47
2022-10-31T06:08:25.988Z,5.57
2022-10-31T06:10:54.923Z,5.70
2022-10-31T06:13:41.831Z,8.93
2022-10-31T06:16:20.025Z,6.65
2022-10-31T06:18:48.397Z,9.30
2022-10-31T06:21:18.877Z,9.05
2022-10-31T06:23:48.448Z,8.05
2022-10-31T06:26:35.611Z,10.50
2022-10-31T06:29:05.816Z,9.73
2022-10-31T06:31:55.489Z,8.13
2022-10-31T06:34:22.620Z,7.43
2022-10-31T06:36:50.600Z,8.65
2022-10-31T06:39:21.098Z,14.85
2022-10-31T06:41:51.133Z,6.68
2022-10-31T06:44:23.872Z,7.68
2022-10-31T06:46:57.173Z,7.10
2022-10-31T06:49:32.939Z,7.15
2022-10-31T06:52:03.483Z,8.02
2022-10-31T06:54:30.438Z,8.45
2022-10-31T06:56:57.495Z,7.38
2022-10-31T06:59:25.287Z,6.63
2022-10-31T07:02:30.404Z,9.07
2022-10-31T07:04:57.816Z,8.93
2022-10-31T07:07:25.491Z,8.45
2022-10-31T07:09:52.489Z,11.85
2022-10-31T07:12:28.613Z,8.98
2022-10-31T07:14:58.798Z,8.82
2022-10-31T07:17:29.841Z,10.23
2022-10-31T07:19:59.717Z,8.55
2022-10-31T07:22:37.145Z,8.98
2022-10-31T07:25:06.655Z,14.43
2022-10-31T07:28:06.818Z,10.70
2022-10-31T07:30:34.011Z,10.10
2022-10-31T07:33:04.757Z,14.23
2022-10-31T07:35:50.312Z,8.43
2022-10-31T07:38:22.769Z,18.08
2022-10-31T07:40:56.380Z,20.50
2022-10-31T07:43:24.694Z,13.75
2022-10-31T07:46:13.654Z,11.25
2022-10-31T07:48:59.497Z,13.80
2022-10-31T07:51:56.337Z,16.75
2022-10-31T07:54:46.738Z,10.23
2022-10-31T07:57:25.118Z,13.50
2022-10-31T07:59:52.716Z,10.63
2022-10-31T08:02:20.065Z,9.25
2022-10-31T08:04:50.391Z,9.57
2022-10-31T08:07:38.494Z,13.90
2022-10-31T08:10:08.454Z,10.32
2022-10-31T08:12:36.292Z,13.27
2022-10-31T08:15:07.151Z,12.23
2022-10-31T08:17:40.242Z,14.02
2022-10-31T08:20:08.400Z,14.95
2022-10-31T08:22:43.885Z,16.98
2022-10-31T08:25:11.640Z,13.32
2022-10-31T08:27:39.572Z,9.38
2022-10-31T08:30:07.447Z,13.85
2022-10-31T08:32:37.411Z,12.55
2022-10-31T08:35:22.746Z,12.57
2022-10-31T08:38:13.441Z,9.63
2022-10-31T08:40:41.934Z,9.55
2022-10-31T08:43:17.079Z,16.17
2022-10-31T08:45:45.359Z,19.90
2022-10-31T08:48:19.387Z,12.23
2022-10-31T08:50:47.719Z,13.57
2022-10-31T08:53:17.160Z,15.18
2022-10-31T08:55:49.590Z,14.48
2022-10-31T08:58:25.086Z,13.77
2022-10-31T09:01:01.298Z,10.82
2022-10-31T09:03:31.963Z,10.52
2022-10-31T09:06:02.659Z,10.20
2022-10-31T09:08:34.006Z,19.33
2022-10-31T09:11:02.996Z,18.88
2022-10-31T09:13:48.981Z,11.43
2022-10-31T09:16:45.007Z,11.48
2022-10-31T09:19:21.699Z,13.10
2022-10-31T09:21:48.894Z,12.75
2022-10-31T09:24:16.426Z,17.52
2022-10-31T09:26:43.586Z,12.80
2022-10-31T09:29:26.815Z,9.88
2022-10-31T09:31:59.670Z,11.68
2022-10-31T09:34:29.312Z,12.07
2022-10-31T09:37:22.769Z,11.50
2022-10-31T09:39:51.830Z,10.95
2022-10-31T09:42:33.935Z,9.13
2022-10-31T09:45:21.686Z,13.25
2022-10-31T09:48:01.600Z,10.63
2022-10-31T09:51:11.768Z,13.82
2022-10-31T09:54:12.688Z,17.20
2022-10-31T09:56:39.896Z,12.73
2022-10-31T09:59:41.386Z,14.40
2022-10-31T10:02:34.074Z,14.70
2022-10-31T10:05:05.087Z,12.88
2022-10-31T10:07:58.484Z,17.13
2022-10-31T10:10:53.650Z,14.27
2022-10-31T10:14:03.584Z,16.30
2022-10-31T10:16:50.290Z,14.30
2022-10-31T10:19:35.898Z,17.17
2022-10-31T10:22:11.934Z,14.32
2022-10-31T10:25:04.144Z,15.65
2022-10-31T10:30:03.916Z,14.38
2022-10-31T10:32:49.263Z,19.75
2022-10-31T10:35:25.451Z,15.95
2022-10-31T10:37:58.872Z,18.05
2022-10-31T10:40:30.192Z,14.90
2022-10-31T10:43:19.386Z,25.10
2022-10-31T10:46:28.774Z,16.52
2022-10-31T10:49:18.444Z,18.08
2022-10-31T10:53:02.591Z,18.88
2022-10-31T10:57:55.108Z,22.70
2022-10-31T11:00:52.158Z,23.42
2022-10-31T11:03:20.639Z,19.35
2022-10-31T11:05:54.725Z,20.65
2022-10-31T11:08:30.880Z,23.48
2022-10-31T11:11:30.609Z,22.98
2022-10-31T11:14:14.761Z,18.13
2022-10-31T11:16:45.665Z,20.27
2022-10-31T11:19:13.345Z,23.93
2022-10-31T11:21:40.289Z,15.65
2022-10-31T11:24:10.001Z,20.25
2022-10-31T11:26:41.721Z,19.75
2022-10-31T11:29:25.921Z,22.98
2022-10-31T11:31:56.119Z,21.48
2022-10-31T11:34:28.406Z,21.02
2022-10-31T11:36:57.534Z,21.98
2022-10-31T11:39:25.970Z,22.38
2022-10-31T11:41:55.389Z,19.30
2022-10-31T11:44:29.469Z,29.63
2022-10-31T11:47:01.092Z,23.55
2022-10-31T11:49:33.803Z,23.92
2022-10-31T11:52:13.747Z,21.45
2022-10-31T11:54:58.059Z,24.63
2022-10-31T11:57:34.441Z,25.33
2022-10-31T12:00:04.698Z,49.60
2022-10-31T12:02:39.208Z,17.67
2022-10-31T12:05:17.911Z,32.22
2022-10-31T12:07:45.366Z,28.25
2022-10-31T12:10:13.404Z,31.17
2022-10-31T12:13:15.668Z,19.80
2022-10-31T12:15:51.829Z,26.90
2022-10-31T12:18:59.741Z,26.65
2022-10-31T12:22:00.809Z,25.42
2022-10-31T12:24:42.200Z,28.17
2022-10-31T12:27:27.751Z,22.70
2022-10-31T12:29:57.669Z,23.08
2022-10-31T12:32:42.603Z,25.17
2022-10-31T12:35:35.188Z,23.05
2022-10-31T12:38:20.776Z,24.10
2022-10-31T12:41:13.930Z,25.65
2022-10-31T12:43:49.886Z,31.60
2022-10-31T12:46:55.358Z,26.40
2022-10-31T12:49:34.566Z,33.00
2022-10-31T12:52:23.346Z,24.60
2022-10-31T12:55:29.581Z,26.67
2022-10-31T12:58:04.151Z,33.15
2022-10-31T13:00:33.793Z,25.88
2022-10-31T13:03:23.908Z,25.20
2022-10-31T13:06:06.517Z,28.15
2022-10-31T13:08:47.403Z,26.38
2022-10-31T13:11:23.662Z,24.00
2022-10-31T13:14:11.580Z,20.00
2022-10-31T13:16:45.624Z,21.35
2022-10-31T13:19:19.683Z,25.42
2022-10-31T13:22:01.117Z,21.90
2022-10-31T13:24:42.827Z,24.05
2022-10-31T13:27:23.872Z,19.67
2022-10-31T13:30:34.586Z,21.83
2022-10-31T13:33:26.879Z,18.20
2022-10-31T13:36:09.251Z,22.20
2022-10-31T13:38:39.299Z,33.25
2022-10-31T13:41:36.362Z,25.52
2022-10-31T13:44:12.316Z,30.25
2022-10-31T13:49:29.812Z,26.63
2022-10-31T13:52:12.272Z,22.05
2022-10-31T13:54:41.458Z,24.38
2022-10-31T13:57:19.688Z,23.60
2022-10-31T14:00:01.754Z,20.88
2022-10-31T14:02:46.040Z,27.33
2022-10-31T14:05:36.958Z,20.30
2022-10-31T14:08:05.940Z,23.05
2022-10-31T14:10:51.750Z,17.50
2022-10-31T14:13:49.804Z,21.90
2022-10-31T14:16:39.247Z,22.05
2022-10-31T14:19:14.926Z,19.70
2022-10-31T14:21:46.978Z,21.45
2022-10-31T14:24:32.921Z,20.08
2022-10-31T14:27:27.274Z,22.73
2022-10-31T14:29:57.687Z,18.88
2022-10-31T14:32:29.078Z,38.10
2022-10-31T14:35:03.001Z,20.08
2022-10-31T14:38:02.950Z,22.65
2022-10-31T14:40:54.447Z,23.70
2022-10-31T14:43:30.248Z,21.58
2022-10-31T14:46:14.003Z,19.92
2022-10-31T14:48:47.084Z,37.10
2022-10-31T14:51:25.502Z,21.33
2022-10-31T14:53:57.382Z,19.00
2022-10-31T14:56:48.051Z,17.77
2022-10-31T14:59:18.753Z,19.52
2022-10-31T15:01:58.861Z,19.27
2022-10-31T15:04:32.304Z,23.33
2022-10-31T15:07:25.820Z,16.75
2022-10-31T15:10:19.382Z,16.83
2022-10-31T15:12:46.592Z,20.10
2022-10-31T15:15:20.906Z,20.83
2022-10-31T15:17:53.785Z,21.50
2022-10-31T15:20:24.538Z,19.63
2022-10-31T15:22:53.558Z,23.05
2022-10-31T15:25:23.211Z,16.77
2022-10-31T15:27:51.992Z,17.20
2022-10-31T15:30:25.393Z,15.60
2022-10-31T15:33:01.112Z,18.27
2022-10-31T15:35:31.071Z,14.50
2022-10-31T15:38:03.302Z,16.30
2022-10-31T15:40:33.070Z,12.63
2022-10-31T15:43:05.690Z,11.43
2022-10-31T15:45:32.846Z,12.82
2022-10-31T15:48:04.218Z,15.57
2022-10-31T15:50:42.171Z,9.98
2022-10-31T15:53:28.650Z,10.85
2022-10-31T15:56:11.480Z,9.95
2022-10-31T15:58:48.238Z,11.05
2022-10-31T16:01:30.584Z,13.75
2022-10-31T16:04:06.561Z,13.90
2022-10-31T16:06:35.741Z,18.27
2022-10-31T16:09:07.208Z,14.60
2022-10-31T16:11:38.122Z,11.38
2022-10-31T16:14:13.904Z,10.43
2022-10-31T16:16:47.508Z,11.38
2022-10-31T16:19:26.086Z,18.52
2022-10-31T16:22:09.878Z,12.25
2022-10-31T16:24:57.545Z,15.30
2022-10-31T16:27:29.750Z,15.27
2022-10-31T16:30:02.722Z,10.77
2022-10-31T16:32:50.981Z,10.15
2022-10-31T16:35:20.043Z,16.20
2022-10-31T16:37:47.137Z,13.52
2022-10-31T16:40:15.610Z,11.73
2022-10-31T16:42:43.937Z,11.25
2022-10-31T16:45:22.830Z,17.85
2022-10-31T16:47:50.948Z,9.70
2022-10-31T16:50:26.204Z,12.82
2022-10-31T16:53:12.378Z,14.18
2022-10-31T16:55:45.990Z,25.02
2022-10-31T16:58:19.942Z,28.13
2022-10-31T17:00:47.146Z,12.88
2022-10-31T17:03:14.553Z,19.20
2022-10-31T17:05:41.634Z,12.55
2022-10-31T17:08:09.266Z,13.45
2022-10-31T17:10:37.165Z,12.60
2022-10-31T17:13:07.043Z,12.85
2022-10-31T17:15:41.565Z,7.05
2022-10-31T17:18:15.452Z,13.25
2022-10-31T17:20:44.798Z,12.68
2022-10-31T17:23:14.147Z,8.77
2022-10-31T17:25:44.001Z,9.93
2022-10-31T17:28:13.993Z,13.30
2022-10-31T17:30:42.742Z,13.32
2022-10-31T17:33:13.543Z,13.50
2022-10-31T17:35:41.304Z,11.98
2022-10-31T17:38:08.285Z,13.68
2022-10-31T17:40:39.377Z,9.75
2022-10-31T17:43:06.627Z,10.02
2022-10-31T17:45:33.533Z,11.43
2022-10-31T17:48:05.087Z,11.38
2022-10-31T17:50:32.116Z,12.65
2022-10-31T17:52:59.823Z,10.57
2022-10-31T17:55:32.885Z,11.05
2022-10-31T17:58:07.025Z,8.23
2022-10-31T18:00:34.332Z,12.43
2022-10-31T18:03:04.194Z,11.40
2022-10-31T18:05:31.956Z,8.27
2022-10-31T18:08:03.811Z,13.18
2022-10-31T18:10:31.554Z,15.55
2022-10-31T18:12:58.850Z,6.68
2022-10-31T18:15:26.180Z,8.93
2022-10-31T18:17:53.144Z,8.80
2022-10-31T18:20:20.030Z,11.63
2022-10-31T18:22:47.282Z,6.68
2022-10-31T18:25:14.246Z,8.40
2022-10-31T18:27:41.393Z,7.85
2022-10-31T18:30:11.254Z,6.00
2022-10-31T18:32:38.369Z,16.70
2022-10-31T18:35:05.764Z,11.25
2022-10-31T18:37:32.801Z,6.03
2022-10-31T18:39:59.703Z,12.60
2022-10-31T18:42:27.784Z,5.78
2022-10-31T18:44:54.807Z,14.68
2022-10-31T18:47:22.354Z,10.27
2022-10-31T18:49:49.299Z,9.85
2022-10-31T18:52:16.301Z,18.60
2022-10-31T18:54:45.294Z,8.07
2022-10-31T18:57:13.522Z,8.07
2022-10-31T18:59:40.568Z,7.82
2022-10-31T19:02:08.234Z,10.15
2022-10-31T19:04:35.368Z,12.18
2022-10-31T19:07:02.466Z,6.28
2022-10-31T19:09:32.691Z,7.53
2022-10-31T19:11:59.748Z,6.28
2022-10-31T19:14:26.766Z,7.20
2022-10-31T19:16:57.131Z,4.97
2022-10-31T19:19:27.192Z,8.68
2022-10-31T19:21:56.108Z,7.00
2022-10-31T19:24:23.146Z,8.27
2022-10-31T19:26:50.121Z,11.68
2022-10-31T19:29:17.081Z,6.75
2022-10-31T19:31:44.207Z,5.80
2022-10-31T19:34:12.395Z,11.48
2022-10-31T19:36:39.399Z,6.00
2022-10-31T19:39:06.578Z,6.63
2022-10-31T19:41:33.557Z,9.70
2022-10-31T19:44:01.432Z,7.53
2022-10-31T19:46:48.264Z,7.85
2022-10-31T19:49:15.740Z,6.93
2022-10-31T19:51:45.302Z,7.57
2022-10-31T19:54:12.950Z,5.40
2022-10-31T19:56:40.195Z,9.65
2022-10-31T19:59:08.071Z,8.95
2022-10-31T20:01:38.270Z,9.10
2022-10-31T20:04:05.371Z,5.82
2022-10-31T20:06:36.129Z,6.57
2022-10-31T20:09:09.956Z,10.77
2022-10-31T20:11:38.823Z,8.25
2022-10-31T20:14:06.872Z,6.95
2022-10-31T20:16:35.103Z,7.32
2022-10-31T20:19:02.387Z,10.57
2022-10-31T20:21:32.465Z,7.63
2022-10-31T20:24:04.956Z,8.90
2022-10-31T20:26:33.531Z,6.88
2022-10-31T20:29:01.916Z,7.47
2022-10-31T20:31:33.899Z,5.47
2022-10-31T20:34:01.571Z,8.20
2022-10-31T20:36:31.879Z,7.85
2022-10-31T20:39:05.348Z,7.05
2022-10-31T20:41:32.647Z,8.10
2022-10-31T20:44:00.971Z,7.95
2022-10-31T20:46:28.765Z,8.88
2022-10-31T20:48:55.890Z,9.82
2022-10-31T20:51:28.770Z,9.90
2022-10-31T20:53:57.494Z,5.88
2022-10-31T20:56:28.911Z,11.93
2022-10-31T20:58:58.631Z,8.45
2022-10-31T21:01:28.852Z,8.50
2022-10-31T21:03:56.917Z,7.57
2022-10-31T21:06:24.369Z,10.07
2022-10-31T21:08:54.070Z,8.10
2022-10-31T21:11:23.390Z,8.77
2022-10-31T21:13:51.848Z,9.93
2022-10-31T21:16:21.882Z,6.80
2022-10-31T21:18:50.715Z,11.70
2022-10-31T21:21:19.610Z,10.88
2022-10-31T21:23:47.238Z,7.20
2022-10-31T21:26:22.644Z,8.13
2022-10-31T21:28:52.746Z,11.25
2022-10-31T21:31:20.137Z,14.35
2022-10-31T21:33:47.649Z,12.27
2022-10-31T21:36:15.222Z,8.75
2022-10-31T21:38:42.466Z,6.50
2022-10-31T21:41:13.757Z,9.68
2022-10-31T21:43:43.750Z,6.03
2022-10-31T21:46:29.562Z,9.18
2022-10-31T21:48:56.788Z,9.35
2022-10-31T21:51:27.835Z,9.30
2022-10-31T21:54:14.745Z,6.38
2022-10-31T21:56:42.776Z,9.48
2022-10-31T21:59:10.060Z,7.97
2022-10-31T22:01:38.098Z,10.38
2022-10-31T22:04:06.409Z,6.75
2022-10-31T22:06:36.317Z,7.63
2022-10-31T22:09:06.635Z,4.97
2022-10-31T22:11:36.141Z,3.70
2022-10-31T22:14:04.693Z,4.55
2022-10-31T22:16:35.219Z,5.95
2022-10-31T22:19:05.767Z,7.65
2022-10-31T22:21:44.452Z,12.18
2022-10-31T22:24:12.252Z,4.15
2022-10-31T22:26:40.364Z,3.95
2022-10-31T22:29:14.068Z,6.40
2022-10-31T22:31:44.299Z,6.45
2022-10-31T22:34:12.432Z,7.40
2022-10-31T22:36:47.178Z,11.00
2022-10-31T22:39:15.164Z,10.63
2022-10-31T22:41:43.426Z,7.10
2022-10-31T22:44:10.473Z,3.72
2022-10-31T22:46:39.189Z,10.57
2022-10-31T22:49:14.948Z,7.32
2022-10-31T22:51:44.817Z,8.77
2022-10-31T22:54:16.355Z,8.60
2022-10-31T22:56:43.698Z,11.35
2022-10-31T22:59:15.411Z,4.00
2022-10-31T23:01:45.645Z,7.30
2022-10-31T23:04:13.845Z,7.03
2022-10-31T23:06:40.958Z,6.28
2022-10-31T23:09:08.298Z,12.90
2022-10-31T23:11:38.470Z,8.18
2022-10-31T23:14:10.301Z,6.32
2022-10-31T23:16:40.627Z,3.92
2022-10-31T23:19:08.934Z,7.43
2022-10-31T23:21:54.822Z,7.47
2022-10-31T23:24:39.727Z,8.98
2022-10-31T23:27:24.025Z,4.68
2022-10-31T23:29:55.280Z,9.45
2022-10-31T23:32:31.414Z,5.35
2022-10-31T23:35:04.912Z,3.10
2022-10-31T23:37:34.521Z,5.32
2022-10-31T23:40:02.049Z,4.70
2022-10-31T23:42:29.346Z,5.47
2022-10-31T23:44:57.069Z,9.95
2022-10-31T23:47:24.156Z,5.40
2022-10-31T23:49:51.385Z,5.72
2022-10-31T23:52:18.702Z,5.53
2022-10-31T23:54:45.769Z,4.60
2022-10-31T23:57:14.729Z,4.82
2022-10-31T23:59:41.918Z,10.73
